sensor_id;sensor_type;location;lat;lon;timestamp;P1;durP1;ratioP1;P2;durP2;ratioP2
13611;SDS011;6877;51.436;6.774;2022-08-18T00:01:48;67.72;;;46.47;;
13611;SDS011;6877;51.436;6.774;2022-08-18T00:04:25;59.35;;;40.80;;
13611;SDS011;6877;51.436;6.774;2022-08-18T00:06:52;63.10;;;42.65;;
13611;SDS011;6877;51.436;6.774;2022-08-18T00:09:18;65.95;;;43.72;;
13611;SDS011;6877;51.436;6.774;2022-08-18T00:11:48;71.88;;;42.90;;
13611;SDS011;6877;51.436;6.774;2022-08-18T00:14:17;55.00;;;39.35;;
13611;SDS011;6877;51.436;6.774;2022-08-18T00:16:49;52.50;;;36.10;;
13611;SDS011;6877;51.436;6.774;2022-08-18T00:19:19;50.28;;;35.00;;
13611;SDS011;6877;51.436;6.774;2022-08-18T00:21:52;64.65;;;43.58;;
13611;SDS011;6877;51.436;6.774;2022-08-18T00:24:19;64.88;;;41.65;;
13611;SDS011;6877;51.436;6.774;2022-08-18T00:26:53;63.53;;;43.47;;
13611;SDS011;6877;51.436;6.774;2022-08-18T00:29:20;55.63;;;40.65;;
13611;SDS011;6877;51.436;6.774;2022-08-18T00:31:52;59.55;;;41.13;;
13611;SDS011;6877;51.436;6.774;2022-08-18T00:34:18;48.58;;;34.75;;
13611;SDS011;6877;51.436;6.774;2022-08-18T00:36:50;56.70;;;39.10;;
13611;SDS011;6877;51.436;6.774;2022-08-18T00:39:17;53.72;;;36.50;;
13611;SDS011;6877;51.436;6.774;2022-08-18T00:41:43;49.28;;;36.85;;
13611;SDS011;6877;51.436;6.774;2022-08-18T00:44:10;53.72;;;37.03;;
13611;SDS011;6877;51.436;6.774;2022-08-18T00:46:41;62.25;;;43.30;;
13611;SDS011;6877;51.436;6.774;2022-08-18T00:49:13;57.78;;;38.83;;
13611;SDS011;6877;51.436;6.774;2022-08-18T00:51:44;58.50;;;41.95;;
13611;SDS011;6877;51.436;6.774;2022-08-18T00:54:15;56.50;;;39.65;;
13611;SDS011;6877;51.436;6.774;2022-08-18T00:56:52;56.80;;;39.15;;
13611;SDS011;6877;51.436;6.774;2022-08-18T00:59:57;50.70;;;37.60;;
13611;SDS011;6877;51.436;6.774;2022-08-18T01:02:34;59.55;;;40.22;;
13611;SDS011;6877;51.436;6.774;2022-08-18T01:07:48;65.55;;;45.88;;
13611;SDS011;6877;51.436;6.774;2022-08-18T01:10:19;71.05;;;49.75;;
13611;SDS011;6877;51.436;6.774;2022-08-18T01:12:51;73.50;;;49.95;;
13611;SDS011;6877;51.436;6.774;2022-08-18T01:15:20;66.45;;;46.38;;
13611;SDS011;6877;51.436;6.774;2022-08-18T01:17:49;69.57;;;49.17;;
13611;SDS011;6877;51.436;6.774;2022-08-18T01:21:18;69.38;;;47.33;;
13611;SDS011;6877;51.436;6.774;2022-08-18T01:23:49;70.50;;;47.08;;
13611;SDS011;6877;51.436;6.774;2022-08-18T01:26:23;72.03;;;48.67;;
13611;SDS011;6877;51.436;6.774;2022-08-18T01:28:52;82.30;;;53.33;;
13611;SDS011;6877;51.436;6.774;2022-08-18T01:31:30;71.00;;;47.60;;
13611;SDS011;6877;51.436;6.774;2022-08-18T01:34:09;71.03;;;46.60;;
13611;SDS011;6877;51.436;6.774;2022-08-18T01:36:41;74.47;;;49.00;;
13611;SDS011;6877;51.436;6.774;2022-08-18T01:39:09;79.47;;;51.75;;
13611;SDS011;6877;51.436;6.774;2022-08-18T01:41:38;70.60;;;46.42;;
13611;SDS011;6877;51.436;6.774;2022-08-18T01:44:05;71.00;;;47.25;;
13611;SDS011;6877;51.436;6.774;2022-08-18T01:46:37;79.95;;;51.38;;
13611;SDS011;6877;51.436;6.774;2022-08-18T01:49:07;68.22;;;45.83;;
13611;SDS011;6877;51.436;6.774;2022-08-18T01:51:40;84.53;;;51.58;;
13611;SDS011;6877;51.436;6.774;2022-08-18T01:54:09;81.15;;;52.50;;
13611;SDS011;6877;51.436;6.774;2022-08-18T01:56:37;79.95;;;52.08;;
13611;SDS011;6877;51.436;6.774;2022-08-18T01:59:05;82.22;;;54.17;;
13611;SDS011;6877;51.436;6.774;2022-08-18T02:01:43;77.55;;;50.67;;
13611;SDS011;6877;51.436;6.774;2022-08-18T02:04:13;87.85;;;54.45;;
13611;SDS011;6877;51.436;6.774;2022-08-18T02:06:42;81.50;;;51.78;;
13611;SDS011;6877;51.436;6.774;2022-08-18T02:09:09;72.53;;;49.22;;
13611;SDS011;6877;51.436;6.774;2022-08-18T02:11:36;82.05;;;53.38;;
13611;SDS011;6877;51.436;6.774;2022-08-18T02:14:08;87.63;;;53.05;;
13611;SDS011;6877;51.436;6.774;2022-08-18T02:16:35;86.07;;;55.15;;
13611;SDS011;6877;51.436;6.774;2022-08-18T02:19:01;84.63;;;51.25;;
13611;SDS011;6877;51.436;6.774;2022-08-18T02:21:28;94.82;;;53.83;;
13611;SDS011;6877;51.436;6.774;2022-08-18T02:23:55;93.22;;;55.55;;
13611;SDS011;6877;51.436;6.774;2022-08-18T02:26:34;81.47;;;51.35;;
13611;SDS011;6877;51.436;6.774;2022-08-18T02:29:01;95.40;;;55.35;;
13611;SDS011;6877;51.436;6.774;2022-08-18T02:31:28;89.00;;;51.45;;
13611;SDS011;6877;51.436;6.774;2022-08-18T02:33:54;105.30;;;56.78;;
13611;SDS011;6877;51.436;6.774;2022-08-18T02:36:27;93.93;;;56.58;;
13611;SDS011;6877;51.436;6.774;2022-08-18T02:38:54;95.35;;;57.13;;
13611;SDS011;6877;51.436;6.774;2022-08-18T02:41:26;103.90;;;56.70;;
13611;SDS011;6877;51.436;6.774;2022-08-18T02:44:01;113.53;;;63.22;;
13611;SDS011;6877;51.436;6.774;2022-08-18T02:46:35;105.82;;;59.97;;
13611;SDS011;6877;51.436;6.774;2022-08-18T02:49:07;93.07;;;54.40;;
13611;SDS011;6877;51.436;6.774;2022-08-18T02:51:34;94.80;;;55.00;;
13611;SDS011;6877;51.436;6.774;2022-08-18T02:54:01;92.70;;;53.63;;
13611;SDS011;6877;51.436;6.774;2022-08-18T02:56:29;83.40;;;51.63;;
13611;SDS011;6877;51.436;6.774;2022-08-18T02:58:58;95.95;;;53.95;;
13611;SDS011;6877;51.436;6.774;2022-08-18T03:01:33;86.53;;;53.65;;
13611;SDS011;6877;51.436;6.774;2022-08-18T03:04:03;74.25;;;46.70;;
13611;SDS011;6877;51.436;6.774;2022-08-18T03:06:33;80.95;;;48.78;;
13611;SDS011;6877;51.436;6.774;2022-08-18T03:09:07;80.45;;;49.78;;
13611;SDS011;6877;51.436;6.774;2022-08-18T03:11:35;79.40;;;48.58;;
13611;SDS011;6877;51.436;6.774;2022-08-18T03:14:07;82.25;;;49.92;;
13611;SDS011;6877;51.436;6.774;2022-08-18T03:16:36;85.70;;;48.40;;
13611;SDS011;6877;51.436;6.774;2022-08-18T03:19:04;82.53;;;49.38;;
13611;SDS011;6877;51.436;6.774;2022-08-18T03:21:31;87.60;;;49.28;;
13611;SDS011;6877;51.436;6.774;2022-08-18T03:24:06;84.15;;;47.58;;
13611;SDS011;6877;51.436;6.774;2022-08-18T03:26:41;87.13;;;49.42;;
13611;SDS011;6877;51.436;6.774;2022-08-18T03:29:09;87.00;;;48.65;;
13611;SDS011;6877;51.436;6.774;2022-08-18T03:31:37;85.55;;;49.20;;
13611;SDS011;6877;51.436;6.774;2022-08-18T03:34:05;89.05;;;51.83;;
13611;SDS011;6877;51.436;6.774;2022-08-18T03:36:34;81.13;;;46.28;;
13611;SDS011;6877;51.436;6.774;2022-08-18T03:39:05;90.45;;;49.22;;
13611;SDS011;6877;51.436;6.774;2022-08-18T03:41:35;84.75;;;49.95;;
13611;SDS011;6877;51.436;6.774;2022-08-18T03:44:04;84.88;;;46.10;;
13611;SDS011;6877;51.436;6.774;2022-08-18T03:46:31;81.30;;;46.78;;
13611;SDS011;6877;51.436;6.774;2022-08-18T03:48:59;80.53;;;43.72;;
13611;SDS011;6877;51.436;6.774;2022-08-18T03:51:32;76.75;;;42.67;;
13611;SDS011;6877;51.436;6.774;2022-08-18T03:54:00;70.35;;;39.50;;
13611;SDS011;6877;51.436;6.774;2022-08-18T03:56:29;77.05;;;43.38;;
13611;SDS011;6877;51.436;6.774;2022-08-18T03:59:14;78.78;;;45.47;;
13611;SDS011;6877;51.436;6.774;2022-08-18T04:01:45;73.25;;;41.85;;
13611;SDS011;6877;51.436;6.774;2022-08-18T04:04:14;72.25;;;43.15;;
13611;SDS011;6877;51.436;6.774;2022-08-18T04:06:46;72.82;;;44.58;;
13611;SDS011;6877;51.436;6.774;2022-08-18T04:09:21;68.78;;;40.15;;
13611;SDS011;6877;51.436;6.774;2022-08-18T04:12:01;77.57;;;44.42;;
13611;SDS011;6877;51.436;6.774;2022-08-18T04:14:31;78.90;;;45.60;;
13611;SDS011;6877;51.436;6.774;2022-08-18T04:16:58;74.35;;;45.17;;
13611;SDS011;6877;51.436;6.774;2022-08-18T04:19:25;62.65;;;39.88;;
13611;SDS011;6877;51.436;6.774;2022-08-18T04:21:52;55.88;;;33.40;;
13611;SDS011;6877;51.436;6.774;2022-08-18T04:24:19;71.57;;;41.65;;
13611;SDS011;6877;51.436;6.774;2022-08-18T04:26:51;74.03;;;44.42;;
13611;SDS011;6877;51.436;6.774;2022-08-18T04:29:22;66.82;;;42.20;;
13611;SDS011;6877;51.436;6.774;2022-08-18T04:31:53;76.97;;;41.72;;
13611;SDS011;6877;51.436;6.774;2022-08-18T04:34:24;70.38;;;41.58;;
13611;SDS011;6877;51.436;6.774;2022-08-18T04:36:51;75.22;;;44.25;;
13611;SDS011;6877;51.436;6.774;2022-08-18T04:39:26;73.35;;;44.67;;
13611;SDS011;6877;51.436;6.774;2022-08-18T04:41:53;75.88;;;46.75;;
13611;SDS011;6877;51.436;6.774;2022-08-18T04:44:25;81.63;;;47.72;;
13611;SDS011;6877;51.436;6.774;2022-08-18T04:46:52;77.65;;;46.22;;
13611;SDS011;6877;51.436;6.774;2022-08-18T04:49:22;76.75;;;46.85;;
13611;SDS011;6877;51.436;6.774;2022-08-18T04:52:05;75.53;;;45.67;;
13611;SDS011;6877;51.436;6.774;2022-08-18T04:54:55;75.28;;;43.78;;
13611;SDS011;6877;51.436;6.774;2022-08-18T04:57:26;69.47;;;44.15;;
13611;SDS011;6877;51.436;6.774;2022-08-18T04:59:59;69.47;;;42.25;;
13611;SDS011;6877;51.436;6.774;2022-08-18T05:02:30;75.57;;;45.03;;
13611;SDS011;6877;51.436;6.774;2022-08-18T05:05:03;81.78;;;47.55;;
13611;SDS011;6877;51.436;6.774;2022-08-18T05:07:31;84.47;;;48.30;;
13611;SDS011;6877;51.436;6.774;2022-08-18T05:10:03;129.98;;;50.90;;
13611;SDS011;6877;51.436;6.774;2022-08-18T05:12:30;80.43;;;42.10;;
13611;SDS011;6877;51.436;6.774;2022-08-18T05:15:01;86.43;;;44.88;;
13611;SDS011;6877;51.436;6.774;2022-08-18T05:17:35;92.00;;;46.75;;
13611;SDS011;6877;51.436;6.774;2022-08-18T05:20:07;78.25;;;43.28;;
13611;SDS011;6877;51.436;6.774;2022-08-18T05:22:40;84.60;;;45.03;;
13611;SDS011;6877;51.436;6.774;2022-08-18T05:25:13;77.70;;;45.17;;
13611;SDS011;6877;51.436;6.774;2022-08-18T05:27:44;80.97;;;46.15;;
13611;SDS011;6877;51.436;6.774;2022-08-18T05:30:11;79.88;;;47.17;;
13611;SDS011;6877;51.436;6.774;2022-08-18T05:32:45;69.10;;;40.65;;
13611;SDS011;6877;51.436;6.774;2022-08-18T05:35:19;85.15;;;46.45;;
13611;SDS011;6877;51.436;6.774;2022-08-18T05:43:38;95.78;;;49.50;;
13611;SDS011;6877;51.436;6.774;2022-08-18T05:46:12;91.30;;;49.40;;
13611;SDS011;6877;51.436;6.774;2022-08-18T05:48:43;82.60;;;45.90;;
13611;SDS011;6877;51.436;6.774;2022-08-18T05:51:23;100.85;;;50.50;;
13611;SDS011;6877;51.436;6.774;2022-08-18T05:54:00;86.30;;;46.38;;
13611;SDS011;6877;51.436;6.774;2022-08-18T05:56:53;75.75;;;41.60;;
13611;SDS011;6877;51.436;6.774;2022-08-18T05:59:27;86.75;;;47.88;;
13611;SDS011;6877;51.436;6.774;2022-08-18T06:02:01;95.32;;;51.78;;
13611;SDS011;6877;51.436;6.774;2022-08-18T06:07:40;84.60;;;48.15;;
13611;SDS011;6877;51.436;6.774;2022-08-18T06:10:08;91.75;;;49.38;;
13611;SDS011;6877;51.436;6.774;2022-08-18T06:12:47;85.70;;;48.13;;
13611;SDS011;6877;51.436;6.774;2022-08-18T06:15:24;76.00;;;44.75;;
13611;SDS011;6877;51.436;6.774;2022-08-18T06:18:11;82.75;;;49.17;;
13611;SDS011;6877;51.436;6.774;2022-08-18T06:23:50;87.32;;;50.97;;
13611;SDS011;6877;51.436;6.774;2022-08-18T06:37:34;77.43;;;45.15;;
13611;SDS011;6877;51.436;6.774;2022-08-18T06:40:26;79.70;;;46.22;;
13611;SDS011;6877;51.436;6.774;2022-08-18T06:42:58;73.28;;;44.53;;
13611;SDS011;6877;51.436;6.774;2022-08-18T06:45:31;62.75;;;42.22;;
13611;SDS011;6877;51.436;6.774;2022-08-18T06:50:57;53.65;;;35.90;;
13611;SDS011;6877;51.436;6.774;2022-08-18T06:59:16;72.28;;;42.95;;
13611;SDS011;6877;51.436;6.774;2022-08-18T07:01:52;66.05;;;39.97;;
13611;SDS011;6877;51.436;6.774;2022-08-18T07:04:32;74.78;;;43.65;;
13611;SDS011;6877;51.436;6.774;2022-08-18T07:07:17;76.00;;;45.28;;
13611;SDS011;6877;51.436;6.774;2022-08-18T07:09:59;72.10;;;41.88;;
13611;SDS011;6877;51.436;6.774;2022-08-18T07:12:31;73.80;;;42.65;;
13611;SDS011;6877;51.436;6.774;2022-08-18T07:15:03;60.92;;;36.38;;
13611;SDS011;6877;51.436;6.774;2022-08-18T07:17:37;61.08;;;38.22;;
13611;SDS011;6877;51.436;6.774;2022-08-18T07:20:20;58.25;;;37.08;;
13611;SDS011;6877;51.436;6.774;2022-08-18T07:22:59;62.45;;;38.03;;
13611;SDS011;6877;51.436;6.774;2022-08-18T07:25:29;62.30;;;39.78;;
13611;SDS011;6877;51.436;6.774;2022-08-18T07:28:04;58.03;;;36.45;;
13611;SDS011;6877;51.436;6.774;2022-08-18T07:30:36;58.90;;;37.85;;
13611;SDS011;6877;51.436;6.774;2022-08-18T07:33:21;60.03;;;37.08;;
13611;SDS011;6877;51.436;6.774;2022-08-18T07:35:59;56.72;;;37.55;;
13611;SDS011;6877;51.436;6.774;2022-08-18T07:38:40;52.42;;;36.38;;
13611;SDS011;6877;51.436;6.774;2022-08-18T07:41:16;51.67;;;33.65;;
13611;SDS011;6877;51.436;6.774;2022-08-18T07:43:56;54.28;;;33.70;;
13611;SDS011;6877;51.436;6.774;2022-08-18T07:46:48;45.17;;;30.58;;
13611;SDS011;6877;51.436;6.774;2022-08-18T07:49:32;49.65;;;33.03;;
13611;SDS011;6877;51.436;6.774;2022-08-18T07:52:18;45.33;;;31.02;;
13611;SDS011;6877;51.436;6.774;2022-08-18T07:55:00;44.63;;;30.48;;
13611;SDS011;6877;51.436;6.774;2022-08-18T08:00:30;43.53;;;30.85;;
13611;SDS011;6877;51.436;6.774;2022-08-18T08:03:28;45.95;;;30.13;;
13611;SDS011;6877;51.436;6.774;2022-08-18T08:06:04;38.90;;;28.40;;
13611;SDS011;6877;51.436;6.774;2022-08-18T08:20:20;33.33;;;24.08;;
13611;SDS011;6877;51.436;6.774;2022-08-18T08:23:08;27.38;;;19.40;;
13611;SDS011;6877;51.436;6.774;2022-08-18T08:37:19;29.75;;;20.70;;
13611;SDS011;6877;51.436;6.774;2022-08-18T08:39:59;26.50;;;18.58;;
13611;SDS011;6877;51.436;6.774;2022-08-18T08:45:29;26.73;;;19.30;;
13611;SDS011;6877;51.436;6.774;2022-08-18T08:54:21;32.70;;;22.33;;
13611;SDS011;6877;51.436;6.774;2022-08-18T08:56:52;26.80;;;19.20;;
13611;SDS011;6877;51.436;6.774;2022-08-18T08:59:26;26.80;;;19.33;;
13611;SDS011;6877;51.436;6.774;2022-08-18T09:05:14;23.60;;;16.17;;
13611;SDS011;6877;51.436;6.774;2022-08-18T09:19:35;23.45;;;17.98;;
13611;SDS011;6877;51.436;6.774;2022-08-18T09:24:49;26.48;;;19.92;;
13611;SDS011;6877;51.436;6.774;2022-08-18T09:27:37;28.42;;;22.13;;
13611;SDS011;6877;51.436;6.774;2022-08-18T09:30:08;25.80;;;15.55;;
13611;SDS011;6877;51.436;6.774;2022-08-18T09:36:12;20.50;;;16.35;;
13611;SDS011;6877;51.436;6.774;2022-08-18T09:45:07;21.73;;;15.75;;
13611;SDS011;6877;51.436;6.774;2022-08-18T09:56:54;27.40;;;14.48;;
13611;SDS011;6877;51.436;6.774;2022-08-18T10:02:10;20.60;;;15.32;;
13611;SDS011;6877;51.436;6.774;2022-08-18T10:04:44;18.70;;;12.90;;
13611;SDS011;6877;51.436;6.774;2022-08-18T10:13:34;21.35;;;12.68;;
13611;SDS011;6877;51.436;6.774;2022-08-18T10:28:10;14.68;;;11.35;;
13611;SDS011;6877;51.436;6.774;2022-08-18T10:33:02;16.15;;;10.85;;
13611;SDS011;6877;51.436;6.774;2022-08-18T10:40:55;15.65;;;11.60;;
13611;SDS011;6877;51.436;6.774;2022-08-18T10:43:34;17.90;;;12.52;;
13611;SDS011;6877;51.436;6.774;2022-08-18T10:46:54;18.38;;;13.93;;
13611;SDS011;6877;51.436;6.774;2022-08-18T10:51:47;18.75;;;12.20;;
13611;SDS011;6877;51.436;6.774;2022-08-18T11:00:02;20.40;;;14.70;;
13611;SDS011;6877;51.436;6.774;2022-08-18T11:05:39;22.50;;;13.00;;
13611;SDS011;6877;51.436;6.774;2022-08-18T11:08:14;18.40;;;12.40;;
13611;SDS011;6877;51.436;6.774;2022-08-18T11:10:46;30.48;;;14.60;;
13611;SDS011;6877;51.436;6.774;2022-08-18T11:14:22;25.77;;;15.13;;
13611;SDS011;6877;51.436;6.774;2022-08-18T11:16:29;19.90;;;14.23;;
13611;SDS011;6877;51.436;6.774;2022-08-18T11:19:11;17.58;;;13.63;;
13611;SDS011;6877;51.436;6.774;2022-08-18T11:21:45;15.90;;;12.65;;
13611;SDS011;6877;51.436;6.774;2022-08-18T11:24:17;16.90;;;13.52;;
13611;SDS011;6877;51.436;6.774;2022-08-18T11:27:04;18.95;;;12.15;;
13611;SDS011;6877;51.436;6.774;2022-08-18T11:29:47;22.77;;;14.98;;
13611;SDS011;6877;51.436;6.774;2022-08-18T11:32:30;25.42;;;19.10;;
13611;SDS011;6877;51.436;6.774;2022-08-18T11:35:10;25.13;;;16.25;;
13611;SDS011;6877;51.436;6.774;2022-08-18T11:43:18;26.13;;;14.48;;
13611;SDS011;6877;51.436;6.774;2022-08-18T11:46:00;19.88;;;14.98;;
13611;SDS011;6877;51.436;6.774;2022-08-18T11:48:42;15.98;;;13.20;;
13611;SDS011;6877;51.436;6.774;2022-08-18T11:51:23;19.67;;;14.35;;
13611;SDS011;6877;51.436;6.774;2022-08-18T11:53:53;17.27;;;13.30;;
13611;SDS011;6877;51.436;6.774;2022-08-18T11:56:52;15.63;;;11.40;;
13611;SDS011;6877;51.436;6.774;2022-08-18T11:59:39;16.13;;;10.52;;
13611;SDS011;6877;51.436;6.774;2022-08-18T12:02:05;12.15;;;9.45;;
13611;SDS011;6877;51.436;6.774;2022-08-18T12:04:39;13.93;;;8.52;;
13611;SDS011;6877;51.436;6.774;2022-08-18T12:07:11;12.63;;;9.18;;
13611;SDS011;6877;51.436;6.774;2022-08-18T12:12:49;10.00;;;8.20;;
13611;SDS011;6877;51.436;6.774;2022-08-18T12:15:25;8.45;;;7.07;;
13611;SDS011;6877;51.436;6.774;2022-08-18T12:18:01;9.88;;;6.93;;
13611;SDS011;6877;51.436;6.774;2022-08-18T12:20:33;6.80;;;6.10;;
13611;SDS011;6877;51.436;6.774;2022-08-18T12:23:05;8.70;;;6.70;;
13611;SDS011;6877;51.436;6.774;2022-08-18T12:25:36;8.30;;;6.72;;
13611;SDS011;6877;51.436;6.774;2022-08-18T12:28:08;7.93;;;7.13;;
13611;SDS011;6877;51.436;6.774;2022-08-18T12:30:39;8.77;;;6.07;;
13611;SDS011;6877;51.436;6.774;2022-08-18T12:33:11;7.30;;;6.13;;
13611;SDS011;6877;51.436;6.774;2022-08-18T12:35:42;9.27;;;7.00;;
13611;SDS011;6877;51.436;6.774;2022-08-18T12:38:14;13.00;;;7.43;;
13611;SDS011;6877;51.436;6.774;2022-08-18T12:40:47;10.00;;;6.97;;
13611;SDS011;6877;51.436;6.774;2022-08-18T12:43:19;7.25;;;5.53;;
13611;SDS011;6877;51.436;6.774;2022-08-18T12:45:46;10.15;;;6.13;;
13611;SDS011;6877;51.436;6.774;2022-08-18T12:48:17;7.95;;;5.97;;
13611;SDS011;6877;51.436;6.774;2022-08-18T12:50:44;7.45;;;6.10;;
13611;SDS011;6877;51.436;6.774;2022-08-18T12:53:10;5.85;;;5.18;;
13611;SDS011;6877;51.436;6.774;2022-08-18T12:55:42;6.40;;;5.32;;
13611;SDS011;6877;51.436;6.774;2022-08-18T12:58:14;7.55;;;5.30;;
13611;SDS011;6877;51.436;6.774;2022-08-18T13:00:46;6.72;;;5.32;;
13611;SDS011;6877;51.436;6.774;2022-08-18T13:03:13;6.10;;;5.50;;
13611;SDS011;6877;51.436;6.774;2022-08-18T13:05:44;8.43;;;5.45;;
13611;SDS011;6877;51.436;6.774;2022-08-18T13:08:18;6.60;;;5.90;;
13611;SDS011;6877;51.436;6.774;2022-08-18T13:10:51;5.90;;;5.30;;
13611;SDS011;6877;51.436;6.774;2022-08-18T13:13:23;7.65;;;5.22;;
13611;SDS011;6877;51.436;6.774;2022-08-18T13:15:54;5.93;;;5.32;;
13611;SDS011;6877;51.436;6.774;2022-08-18T13:18:26;7.38;;;5.70;;
13611;SDS011;6877;51.436;6.774;2022-08-18T13:20:59;7.20;;;6.03;;
13611;SDS011;6877;51.436;6.774;2022-08-18T13:23:31;7.00;;;6.30;;
13611;SDS011;6877;51.436;6.774;2022-08-18T13:26:04;6.60;;;5.45;;
13611;SDS011;6877;51.436;6.774;2022-08-18T13:28:37;7.53;;;5.47;;
13611;SDS011;6877;51.436;6.774;2022-08-18T13:31:10;7.00;;;6.30;;
13611;SDS011;6877;51.436;6.774;2022-08-18T13:33:41;9.88;;;5.82;;
13611;SDS011;6877;51.436;6.774;2022-08-18T13:36:13;11.82;;;6.10;;
13611;SDS011;6877;51.436;6.774;2022-08-18T13:38:40;12.95;;;6.00;;
13611;SDS011;6877;51.436;6.774;2022-08-18T13:41:12;11.52;;;5.72;;
13611;SDS011;6877;51.436;6.774;2022-08-18T13:43:44;10.27;;;5.45;;
13611;SDS011;6877;51.436;6.774;2022-08-18T13:46:17;7.95;;;7.15;;
13611;SDS011;6877;51.436;6.774;2022-08-18T13:48:49;9.02;;;6.10;;
13611;SDS011;6877;51.436;6.774;2022-08-18T13:51:22;8.70;;;6.45;;
13611;SDS011;6877;51.436;6.774;2022-08-18T13:53:49;7.90;;;6.68;;
13611;SDS011;6877;51.436;6.774;2022-08-18T13:56:20;9.00;;;5.53;;
13611;SDS011;6877;51.436;6.774;2022-08-18T13:58:52;8.25;;;5.60;;
13611;SDS011;6877;51.436;6.774;2022-08-18T14:01:24;7.05;;;5.75;;
13611;SDS011;6877;51.436;6.774;2022-08-18T14:03:55;6.68;;;5.65;;
13611;SDS011;6877;51.436;6.774;2022-08-18T14:06:26;7.57;;;6.10;;
13611;SDS011;6877;51.436;6.774;2022-08-18T14:08:53;8.48;;;5.72;;
13611;SDS011;6877;51.436;6.774;2022-08-18T14:11:26;6.30;;;5.35;;
13611;SDS011;6877;51.436;6.774;2022-08-18T14:14:03;7.18;;;5.65;;
13611;SDS011;6877;51.436;6.774;2022-08-18T14:16:36;7.20;;;5.38;;
13611;SDS011;6877;51.436;6.774;2022-08-18T14:19:09;7.85;;;6.15;;
13611;SDS011;6877;51.436;6.774;2022-08-18T14:21:59;9.82;;;6.10;;
13611;SDS011;6877;51.436;6.774;2022-08-18T14:24:49;10.32;;;6.00;;
13611;SDS011;6877;51.436;6.774;2022-08-18T14:27:35;10.55;;;5.90;;
13611;SDS011;6877;51.436;6.774;2022-08-18T14:30:09;5.53;;;4.93;;
13611;SDS011;6877;51.436;6.774;2022-08-18T14:32:38;6.32;;;5.70;;
13611;SDS011;6877;51.436;6.774;2022-08-18T14:35:11;5.40;;;4.90;;
13611;SDS011;6877;51.436;6.774;2022-08-18T14:37:45;7.55;;;6.05;;
13611;SDS011;6877;51.436;6.774;2022-08-18T14:40:17;11.32;;;4.95;;
13611;SDS011;6877;51.436;6.774;2022-08-18T14:42:50;6.68;;;4.35;;
13611;SDS011;6877;51.436;6.774;2022-08-18T14:45:22;6.70;;;5.40;;
13611;SDS011;6877;51.436;6.774;2022-08-18T14:47:55;7.95;;;5.63;;
13611;SDS011;6877;51.436;6.774;2022-08-18T14:50:26;8.57;;;6.07;;
13611;SDS011;6877;51.436;6.774;2022-08-18T14:52:59;6.05;;;5.25;;
13611;SDS011;6877;51.436;6.774;2022-08-18T14:55:30;7.20;;;6.05;;
13611;SDS011;6877;51.436;6.774;2022-08-18T14:57:57;10.52;;;5.95;;
13611;SDS011;6877;51.436;6.774;2022-08-18T15:00:28;7.75;;;5.75;;
13611;SDS011;6877;51.436;6.774;2022-08-18T15:03:00;6.43;;;5.30;;
13611;SDS011;6877;51.436;6.774;2022-08-18T15:05:32;5.82;;;5.07;;
13611;SDS011;6877;51.436;6.774;2022-08-18T15:08:04;12.07;;;6.65;;
13611;SDS011;6877;51.436;6.774;2022-08-18T15:10:31;9.35;;;6.65;;
13611;SDS011;6877;51.436;6.774;2022-08-18T15:13:03;7.15;;;5.78;;
13611;SDS011;6877;51.436;6.774;2022-08-18T15:15:34;8.48;;;5.25;;
13611;SDS011;6877;51.436;6.774;2022-08-18T15:18:01;7.15;;;4.78;;
13611;SDS011;6877;51.436;6.774;2022-08-18T15:20:28;5.35;;;4.38;;
13611;SDS011;6877;51.436;6.774;2022-08-18T15:23:00;8.23;;;5.15;;
13611;SDS011;6877;51.436;6.774;2022-08-18T15:25:52;10.57;;;4.82;;
13611;SDS011;6877;51.436;6.774;2022-08-18T15:28:24;6.13;;;4.97;;
13611;SDS011;6877;51.436;6.774;2022-08-18T15:30:57;5.72;;;4.50;;
13611;SDS011;6877;51.436;6.774;2022-08-18T15:33:29;11.98;;;5.47;;
13611;SDS011;6877;51.436;6.774;2022-08-18T15:36:00;11.07;;;5.30;;
13611;SDS011;6877;51.436;6.774;2022-08-18T15:38:34;11.35;;;5.38;;
13611;SDS011;6877;51.436;6.774;2022-08-18T15:41:06;6.18;;;5.57;;
13611;SDS011;6877;51.436;6.774;2022-08-18T15:43:37;6.40;;;5.15;;
13611;SDS011;6877;51.436;6.774;2022-08-18T15:46:09;9.10;;;5.38;;
13611;SDS011;6877;51.436;6.774;2022-08-18T15:48:41;6.35;;;4.57;;
13611;SDS011;6877;51.436;6.774;2022-08-18T15:51:12;8.60;;;4.47;;
13611;SDS011;6877;51.436;6.774;2022-08-18T15:53:44;5.82;;;4.75;;
13611;SDS011;6877;51.436;6.774;2022-08-18T15:56:17;7.68;;;5.32;;
13611;SDS011;6877;51.436;6.774;2022-08-18T15:58:54;6.55;;;5.45;;
13611;SDS011;6877;51.436;6.774;2022-08-18T16:01:25;4.85;;;4.45;;
13611;SDS011;6877;51.436;6.774;2022-08-18T16:03:52;6.97;;;4.95;;
13611;SDS011;6877;51.436;6.774;2022-08-18T16:06:25;7.80;;;4.47;;
13611;SDS011;6877;51.436;6.774;2022-08-18T16:08:52;6.05;;;4.93;;
13611;SDS011;6877;51.436;6.774;2022-08-18T16:11:19;6.38;;;4.97;;
13611;SDS011;6877;51.436;6.774;2022-08-18T16:13:53;4.75;;;4.35;;
13611;SDS011;6877;51.436;6.774;2022-08-18T16:16:25;6.35;;;4.07;;
13611;SDS011;6877;51.436;6.774;2022-08-18T16:18:57;5.97;;;5.38;;
13611;SDS011;6877;51.436;6.774;2022-08-18T16:21:29;5.82;;;5.03;;
13611;SDS011;6877;51.436;6.774;2022-08-18T16:24:00;7.43;;;4.90;;
13611;SDS011;6877;51.436;6.774;2022-08-18T16:26:32;7.97;;;5.38;;
13611;SDS011;6877;51.436;6.774;2022-08-18T16:29:03;6.22;;;5.35;;
13611;SDS011;6877;51.436;6.774;2022-08-18T16:31:30;5.05;;;4.60;;
13611;SDS011;6877;51.436;6.774;2022-08-18T16:33:56;8.13;;;5.47;;
13611;SDS011;6877;51.436;6.774;2022-08-18T16:36:23;5.82;;;5.22;;
13611;SDS011;6877;51.436;6.774;2022-08-18T16:38:55;8.00;;;5.50;;
13611;SDS011;6877;51.436;6.774;2022-08-18T16:41:27;5.88;;;5.07;;
13611;SDS011;6877;51.436;6.774;2022-08-18T16:43:59;7.53;;;4.88;;
13611;SDS011;6877;51.436;6.774;2022-08-18T16:46:30;5.43;;;4.93;;
13611;SDS011;6877;51.436;6.774;2022-08-18T16:49:02;7.32;;;4.70;;
13611;SDS011;6877;51.436;6.774;2022-08-18T16:51:37;6.68;;;5.53;;
13611;SDS011;6877;51.436;6.774;2022-08-18T16:54:09;6.53;;;5.05;;
13611;SDS011;6877;51.436;6.774;2022-08-18T16:56:41;8.00;;;5.20;;
13611;SDS011;6877;51.436;6.774;2022-08-18T16:59:13;7.82;;;5.75;;
13611;SDS011;6877;51.436;6.774;2022-08-18T17:02:02;11.23;;;5.90;;
13611;SDS011;6877;51.436;6.774;2022-08-18T17:04:52;7.80;;;5.35;;
13611;SDS011;6877;51.436;6.774;2022-08-18T17:07:24;9.93;;;5.57;;
13611;SDS011;6877;51.436;6.774;2022-08-18T17:09:56;5.90;;;5.30;;
13611;SDS011;6877;51.436;6.774;2022-08-18T17:12:23;5.63;;;4.97;;
13611;SDS011;6877;51.436;6.774;2022-08-18T17:14:56;13.43;;;6.22;;
13611;SDS011;6877;51.436;6.774;2022-08-18T17:17:23;6.10;;;5.45;;
13611;SDS011;6877;51.436;6.774;2022-08-18T17:19:51;7.65;;;5.38;;
13611;SDS011;6877;51.436;6.774;2022-08-18T17:22:23;7.82;;;5.18;;
13611;SDS011;6877;51.436;6.774;2022-08-18T17:24:56;8.93;;;4.85;;
13611;SDS011;6877;51.436;6.774;2022-08-18T17:27:32;5.93;;;5.28;;
13611;SDS011;6877;51.436;6.774;2022-08-18T17:30:07;6.93;;;5.45;;
13611;SDS011;6877;51.436;6.774;2022-08-18T17:40:59;5.65;;;5.05;;
13611;SDS011;6877;51.436;6.774;2022-08-18T17:43:35;7.70;;;5.07;;
13611;SDS011;6877;51.436;6.774;2022-08-18T17:46:13;6.20;;;5.55;;
13611;SDS011;6877;51.436;6.774;2022-08-18T17:49:05;8.65;;;5.50;;
13611;SDS011;6877;51.436;6.774;2022-08-18T17:51:50;10.02;;;6.70;;
13611;SDS011;6877;51.436;6.774;2022-08-18T17:54:31;13.25;;;6.35;;
13611;SDS011;6877;51.436;6.774;2022-08-18T17:57:13;15.95;;;7.70;;
13611;SDS011;6877;51.436;6.774;2022-08-18T18:00:14;11.00;;;6.63;;
13611;SDS011;6877;51.436;6.774;2022-08-18T18:02:43;7.55;;;6.68;;
13611;SDS011;6877;51.436;6.774;2022-08-18T18:05:17;9.15;;;6.30;;